Pendroy, Montana
Current Conditions -  °F | °C
As of 8:56 AM on Sunday 21 Dec 2014 (Local Time) from KCTB Reporting Station
Clear Clear  
Wind Chill: 28°   Ceiling: Unl
Heat Index: 39°   Visibility: 10mi
Dew Point: 30°   Wind: 25mph
Humidity: 70%   Direction: 260°W
Pressure: 29.27"   Gusts: NA
Location:  48.07°N, 112.3°W
Report Text: KCTB 211556Z AUTO 26022KT 10SM CLR 04/M01 A2927 RMK AO2 PK WND 26028/1538 SLP929 T00391011
Loading
Personal Weather Stations






























Interactive Weather Map New forecast layout! Learn more

10-Day Weather Forecast

Advertisements
Track Severe Weather on mobile